Time;durP1;ratioP1;P1;durP2;ratioP2;P2;SDS_P1;SDS_P2;PMS_P1;PMS_P2;Temp;Humidity;BMP_temperature;BMP_pressure;BME280_temperature;BME280_humidity;BME280_pressure;Samples;Min_cycle;Max_cycle;Signal;HPM_P1;HPM_P2
2024/02/06 00:00:46;;;;;;;8.02;3.13;;;11.00;99.90;;;;;;4976946;28;20041;-74
2024/02/06 00:03:11;;;;;;;6.60;2.92;;;11.00;99.90;;;;;;4976123;28;20030;-74
2024/02/06 00:05:37;;;;;;;6.50;3.08;;;11.00;99.90;;;;;;4975610;28;20046;-74
2024/02/06 00:08:03;;;;;;;11.25;3.75;;;11.00;99.90;;;;;;4974696;28;20066;-74
2024/02/06 00:10:29;;;;;;;10.75;3.22;;;11.00;99.90;;;;;;4973530;28;20713;-74
2024/02/06 00:12:55;;;;;;;7.78;2.65;;;10.80;99.90;;;;;;4973840;28;20034;-73
2024/02/06 00:15:21;;;;;;;6.43;3.60;;;10.70;99.90;;;;;;4975441;28;20067;-74
2024/02/06 00:17:46;;;;;;;6.63;2.75;;;10.50;99.90;;;;;;4976463;28;20913;-74
2024/02/06 00:20:12;;;;;;;6.05;3.72;;;10.50;99.90;;;;;;4975181;28;20033;-74
2024/02/06 00:22:38;;;;;;;9.80;3.90;;;10.60;99.90;;;;;;4976991;28;20053;-74
2024/02/06 00:25:06;;;;;;;7.40;3.40;;;10.60;99.90;;;;;;4974851;28;20522;-73
2024/02/06 00:27:31;;;;;;;10.32;3.00;;;10.50;99.90;;;;;;4975081;28;20097;-74
2024/02/06 00:29:57;;;;;;;6.68;2.55;;;10.50;99.90;;;;;;4975234;28;20129;-74
2024/02/06 00:32:23;;;;;;;6.85;2.83;;;10.50;99.90;;;;;;4975633;28;20088;-73
2024/02/06 00:34:49;;;;;;;9.30;3.20;;;10.60;99.90;;;;;;4974694;28;20251;-74
2024/02/06 00:37:17;;;;;;;11.73;2.83;;;10.60;99.90;;;;;;4976114;28;20027;-73
2024/02/06 00:39:42;;;;;;;4.45;2.80;;;10.50;99.90;;;;;;4974381;28;20054;-73
2024/02/06 00:42:10;;;;;;;6.10;2.85;;;10.50;99.90;;;;;;4974281;28;20053;-74
2024/02/06 00:44:38;;;;;;;7.05;3.03;;;10.50;99.90;;;;;;4975736;28;20030;-73
2024/02/06 00:47:04;;;;;;;7.88;2.95;;;10.50;99.90;;;;;;4973640;28;20553;-74
2024/02/06 00:49:30;;;;;;;10.18;2.70;;;10.30;99.90;;;;;;4975362;28;20057;-74
2024/02/06 00:51:55;;;;;;;3.42;2.45;;;10.30;99.90;;;;;;4974626;28;20046;-73
2024/02/06 00:54:21;;;;;;;6.47;2.65;;;10.30;99.90;;;;;;4977029;28;20030;-74
2024/02/06 00:56:47;;;;;;;8.38;2.83;;;10.20;99.90;;;;;;4976022;28;20037;-73
2024/02/06 00:59:13;;;;;;;4.57;2.63;;;10.20;99.90;;;;;;4974215;28;20402;-73
2024/02/06 01:01:38;;;;;;;11.35;3.67;;;10.10;99.90;;;;;;4973145;28;20030;-73
2024/02/06 01:04:05;;;;;;;7.75;2.90;;;10.10;99.90;;;;;;4974107;28;20026;-73
2024/02/06 01:06:31;;;;;;;7.90;3.15;;;10.10;99.90;;;;;;4972829;28;20034;-74
2024/02/06 01:08:56;;;;;;;5.82;2.90;;;10.20;99.90;;;;;;4974171;28;20105;-73
2024/02/06 01:11:22;;;;;;;8.70;3.17;;;10.20;99.90;;;;;;4973638;28;20054;-73
2024/02/06 01:13:48;;;;;;;6.20;2.75;;;10.20;99.90;;;;;;4976052;28;20041;-73
2024/02/06 01:16:14;;;;;;;5.95;3.08;;;10.10;99.90;;;;;;4972584;28;20486;-74
2024/02/06 01:18:40;;;;;;;4.50;2.67;;;10.10;99.90;;;;;;4972316;28;20060;-73
2024/02/06 01:21:05;;;;;;;6.97;3.13;;;10.20;99.90;;;;;;4971671;28;20037;-73
2024/02/06 01:23:32;;;;;;;6.25;3.63;;;10.20;99.90;;;;;;4976707;28;20034;-74
2024/02/06 01:25:57;;;;;;;8.45;3.30;;;10.20;99.90;;;;;;4973356;28;20042;-73
2024/02/06 01:28:23;;;;;;;11.10;3.60;;;10.20;99.90;;;;;;4974515;28;20038;-73
2024/02/06 01:30:49;;;;;;;6.95;3.05;;;10.10;99.90;;;;;;4973778;28;20125;-73
2024/02/06 01:33:15;;;;;;;8.07;5.18;;;10.00;99.90;;;;;;4973730;28;20078;-73
2024/02/06 01:35:41;;;;;;;7.05;2.67;;;10.10;99.90;;;;;;4974606;28;20041;-73
2024/02/06 01:38:07;;;;;;;7.78;2.95;;;10.10;99.90;;;;;;4974562;28;20035;-73
2024/02/06 01:40:41;;;;;;;5.35;2.85;;;10.00;99.90;;;;;;4974030;28;20034;-73
2024/02/06 01:43:07;;;;;;;4.25;3.05;;;10.10;99.90;;;;;;4974337;28;20182;-73
2024/02/06 01:45:33;;;;;;;5.90;2.83;;;10.20;99.90;;;;;;4973529;28;20030;-74
2024/02/06 01:47:59;;;;;;;6.95;3.13;;;10.10;99.90;;;;;;4974050;28;20068;-73
2024/02/06 01:50:25;;;;;;;12.15;3.05;;;10.10;99.90;;;;;;4972635;28;20045;-73
2024/02/06 01:52:52;;;;;;;5.80;2.70;;;10.00;99.90;;;;;;4974877;28;20026;-73
2024/02/06 01:55:18;;;;;;;9.73;3.33;;;9.90;99.90;;;;;;4972955;28;20035;-73
2024/02/06 01:57:46;;;;;;;7.47;3.30;;;9.80;99.90;;;;;;4971754;28;20505;-73
2024/02/06 02:00:13;;;;;;;7.97;3.13;;;9.60;99.90;;;;;;4975764;28;20041;-73
2024/02/06 02:02:40;;;;;;;7.07;3.55;;;9.60;99.90;;;;;;4974536;28;20039;-73
2024/02/06 02:05:07;;;;;;;4.65;3.08;;;9.70;99.90;;;;;;4970985;28;20405;-73
2024/02/06 02:07:35;;;;;;;6.07;4.20;;;9.60;99.90;;;;;;4973605;28;20039;-74
2024/02/06 02:10:02;;;;;;;7.63;3.80;;;9.70;99.90;;;;;;4972209;28;20065;-73
2024/02/06 02:12:27;;;;;;;5.32;3.17;;;9.70;99.90;;;;;;4972859;28;20034;-73
2024/02/06 02:14:53;;;;;;;7.60;3.08;;;9.60;99.90;;;;;;4973260;28;20027;-73
2024/02/06 02:17:19;;;;;;;7.40;2.72;;;9.60;99.90;;;;;;4974139;28;20035;-73
2024/02/06 02:19:45;;;;;;;6.88;3.20;;;9.60;99.90;;;;;;4973230;28;20598;-73
2024/02/06 02:22:10;;;;;;;5.35;2.65;;;9.70;99.90;;;;;;4974711;28;20553;-71
2024/02/06 02:24:36;;;;;;;4.72;3.10;;;9.80;99.90;;;;;;4975011;28;20038;-71
2024/02/06 02:27:03;;;;;;;5.38;3.17;;;9.80;99.90;;;;;;4971205;28;20093;-71
2024/02/06 02:29:31;;;;;;;5.30;2.83;;;9.80;99.90;;;;;;4977813;28;20502;-71
2024/02/06 02:31:58;;;;;;;6.80;2.80;;;9.70;99.90;;;;;;4976385;28;20089;-71
2024/02/06 02:34:24;;;;;;;5.60;2.65;;;9.80;99.90;;;;;;4970566;28;20025;-71
2024/02/06 02:36:49;;;;;;;8.60;2.67;;;9.90;99.90;;;;;;4978047;28;20409;-71
2024/02/06 02:39:15;;;;;;;6.47;3.28;;;9.90;99.90;;;;;;4976335;28;20031;-71
2024/02/06 02:41:41;;;;;;;5.85;2.58;;;9.90;99.90;;;;;;4977690;28;20050;-71
2024/02/06 02:44:07;;;;;;;3.50;2.50;;;9.90;99.90;;;;;;4975016;28;20039;-71
2024/02/06 02:46:33;;;;;;;4.78;2.63;;;10.00;99.90;;;;;;4978076;28;20070;-73
2024/02/06 02:48:58;;;;;;;5.60;2.70;;;10.00;99.90;;;;;;4976580;28;20035;-74
2024/02/06 02:51:25;;;;;;;5.10;2.63;;;10.10;99.90;;;;;;4976246;28;20042;-74
2024/02/06 02:53:50;;;;;;;5.55;3.17;;;10.10;99.90;;;;;;4976893;28;20957;-74
2024/02/06 02:56:17;;;;;;;3.95;2.35;;;10.00;99.90;;;;;;4976893;28;20025;-74
2024/02/06 02:58:42;;;;;;;5.22;2.65;;;9.90;99.90;;;;;;4977167;28;20493;-74
2024/02/06 03:01:08;;;;;;;6.95;2.75;;;10.00;99.90;;;;;;4990648;28;20039;-74
2024/02/06 03:03:35;;;;;;;4.55;2.55;;;10.10;99.90;;;;;;4976413;28;20038;-74
2024/02/06 03:06:01;;;;;;;5.90;2.20;;;10.00;99.90;;;;;;4975089;28;20049;-74
2024/02/06 03:08:26;;;;;;;8.15;2.22;;;10.00;99.90;;;;;;4976788;28;20026;-74
2024/02/06 03:10:52;;;;;;;5.20;2.72;;;9.90;99.90;;;;;;4975299;28;20037;-74
2024/02/06 03:13:18;;;;;;;6.13;2.30;;;9.90;99.90;;;;;;4977630;28;20110;-74
2024/02/06 03:15:44;;;;;;;5.43;2.40;;;9.70;99.90;;;;;;4976816;28;20034;-74
2024/02/06 03:18:10;;;;;;;5.45;2.17;;;9.70;99.90;;;;;;4978396;28;20382;-74
2024/02/06 03:20:36;;;;;;;3.95;2.13;;;9.70;99.90;;;;;;4976154;28;20093;-73
2024/02/06 03:23:01;;;;;;;4.50;1.88;;;9.70;99.90;;;;;;4975865;28;20042;-73
2024/02/06 03:25:27;;;;;;;4.35;1.92;;;9.70;99.90;;;;;;4976530;28;20038;-73
2024/02/06 03:27:54;;;;;;;4.65;2.10;;;9.70;99.90;;;;;;4977678;28;20792;-74
2024/02/06 03:30:20;;;;;;;3.08;1.90;;;9.80;99.90;;;;;;4975321;28;20030;-74
2024/02/06 03:32:47;;;;;;;4.75;1.85;;;9.80;99.90;;;;;;4975030;28;20104;-74
2024/02/06 03:35:13;;;;;;;3.97;1.52;;;9.90;99.90;;;;;;4974281;28;20114;-74
2024/02/06 03:37:39;;;;;;;4.43;2.10;;;9.90;99.90;;;;;;4977390;28;20030;-74
2024/02/06 03:40:08;;;;;;;5.38;2.30;;;9.90;99.90;;;;;;4971331;28;20030;-74
2024/02/06 03:42:35;;;;;;;2.28;1.60;;;9.90;99.90;;;;;;4975947;28;20118;-73
2024/02/06 03:45:01;;;;;;;2.67;1.50;;;9.90;99.90;;;;;;4978103;28;20040;-74
2024/02/06 03:47:27;;;;;;;4.28;1.67;;;9.80;99.90;;;;;;4978567;28;20034;-73
2024/02/06 03:49:53;;;;;;;1.48;1.38;;;9.70;99.90;;;;;;4975547;28;20038;-74
2024/02/06 03:52:18;;;;;;;3.45;1.50;;;9.70;99.90;;;;;;4977351;28;20466;-74
2024/02/06 03:54:45;;;;;;;6.55;1.67;;;9.70;99.90;;;;;;4976366;28;20113;-73
2024/02/06 03:57:11;;;;;;;5.43;1.77;;;9.70;99.90;;;;;;4975010;28;20056;-73
2024/02/06 03:59:37;;;;;;;3.50;1.60;;;9.60;99.90;;;;;;4975493;28;20089;-73
2024/02/06 04:02:03;;;;;;;6.32;1.73;;;9.50;99.90;;;;;;4974876;28;20066;-73
2024/02/06 04:04:29;;;;;;;4.22;1.60;;;9.50;99.90;;;;;;4977183;28;20062;-74
2024/02/06 04:06:54;;;;;;;1.98;1.50;;;9.60;99.90;;;;;;4978139;28;20034;-73
2024/02/06 04:09:20;;;;;;;3.92;1.60;;;9.80;99.90;;;;;;4973670;28;20081;-74
2024/02/06 04:11:46;;;;;;;2.97;1.35;;;9.70;99.90;;;;;;4977538;28;20028;-74
2024/02/06 04:14:12;;;;;;;2.65;1.52;;;9.80;99.90;;;;;;4976624;28;20127;-74
2024/02/06 04:16:37;;;;;;;3.17;1.38;;;9.90;99.90;;;;;;4977765;28;20066;-74
2024/02/06 04:19:04;;;;;;;3.38;2.05;;;9.80;99.90;;;;;;4976503;28;20562;-75
2024/02/06 04:21:29;;;;;;;4.95;1.95;;;9.70;99.90;;;;;;4976125;28;20038;-75
2024/02/06 04:23:56;;;;;;;2.42;1.52;;;9.60;99.90;;;;;;4972425;28;20034;-73
2024/02/06 04:26:22;;;;;;;3.03;1.70;;;9.50;99.90;;;;;;4976305;28;20033;-73
2024/02/06 04:28:47;;;;;;;4.80;1.88;;;9.60;99.90;;;;;;4974912;28;20030;-76
2024/02/06 04:31:13;;;;;;;3.42;1.85;;;9.50;99.90;;;;;;4969232;28;20190;-74
2024/02/06 04:33:39;;;;;;;5.68;1.80;;;9.60;99.90;;;;;;4975745;28;20121;-74
2024/02/06 04:36:05;;;;;;;6.13;2.00;;;9.60;99.90;;;;;;4975963;28;20027;-75
2024/02/06 04:38:31;;;;;;;6.13;1.67;;;9.60;99.90;;;;;;4974582;28;20243;-74
2024/02/06 04:40:57;;;;;;;5.88;1.75;;;9.60;99.90;;;;;;4973364;28;20101;-73
2024/02/06 04:43:23;;;;;;;4.25;1.80;;;9.70;99.90;;;;;;4974112;28;20890;-73
2024/02/06 04:45:49;;;;;;;2.92;1.88;;;9.70;99.90;;;;;;4975055;28;20031;-73
2024/02/06 04:48:14;;;;;;;4.85;2.28;;;9.70;99.90;;;;;;4970951;28;20042;-73
2024/02/06 04:50:40;;;;;;;5.63;2.15;;;9.60;99.90;;;;;;4971652;28;20041;-73
2024/02/06 04:53:06;;;;;;;7.13;1.95;;;9.60;99.90;;;;;;4974072;28;20043;-73
2024/02/06 04:55:32;;;;;;;3.55;2.30;;;9.70;99.90;;;;;;4974883;28;20041;-73
2024/02/06 04:57:59;;;;;;;2.80;1.98;;;9.70;99.90;;;;;;4968787;28;20035;-74
2024/02/06 05:00:25;;;;;;;2.13;1.90;;;9.80;99.90;;;;;;4974911;28;20038;-73
2024/02/06 05:02:51;;;;;;;5.45;2.22;;;9.70;99.90;;;;;;4974831;28;20042;-73
2024/02/06 05:05:16;;;;;;;3.15;2.10;;;9.70;99.90;;;;;;4974270;28;20053;-73
2024/02/06 05:07:42;;;;;;;4.63;2.13;;;9.70;99.90;;;;;;4972432;28;20030;-73
2024/02/06 05:10:11;;;;;;;4.25;2.13;;;9.60;99.90;;;;;;4973645;28;20096;-73
2024/02/06 05:12:37;;;;;;;4.70;2.10;;;9.60;99.90;;;;;;4973252;28;20034;-73
2024/02/06 05:15:04;;;;;;;3.80;2.00;;;9.60;99.90;;;;;;4972581;28;20406;-73
2024/02/06 05:17:30;;;;;;;5.50;1.88;;;9.70;99.90;;;;;;4972283;28;20038;-73
2024/02/06 05:19:56;;;;;;;5.30;2.50;;;9.70;99.90;;;;;;4971064;28;20645;-70
2024/02/06 05:22:22;;;;;;;2.67;1.60;;;9.60;99.90;;;;;;4975976;28;20176;-71
2024/02/06 05:24:48;;;;;;;3.92;2.33;;;9.70;99.90;;;;;;4975636;28;20778;-71
2024/02/06 05:27:14;;;;;;;4.50;2.15;;;9.80;99.90;;;;;;4974936;28;20113;-72
2024/02/06 05:29:40;;;;;;;6.20;2.33;;;9.70;99.90;;;;;;4973517;28;20048;-70
2024/02/06 05:32:06;;;;;;;5.65;2.35;;;9.60;99.90;;;;;;4973415;28;20023;-71
2024/02/06 05:34:31;;;;;;;6.28;2.20;;;9.60;99.90;;;;;;4973188;28;20763;-71
2024/02/06 05:36:57;;;;;;;6.53;2.10;;;9.60;99.90;;;;;;4975485;28;20113;-71
2024/02/06 05:39:23;;;;;;;5.03;2.42;;;9.60;99.90;;;;;;4977144;28;20540;-71
2024/02/06 05:41:49;;;;;;;5.68;2.00;;;9.60;99.90;;;;;;4977181;28;20042;-71
2024/02/06 05:44:15;;;;;;;4.88;2.00;;;9.60;99.90;;;;;;4971741;28;20057;-72
2024/02/06 05:46:40;;;;;;;2.72;1.90;;;9.80;99.90;;;;;;4974787;28;20058;-71
2024/02/06 05:49:06;;;;;;;5.97;2.00;;;9.90;99.90;;;;;;4970621;28;20045;-71
2024/02/06 05:51:32;;;;;;;2.72;1.98;;;9.90;99.90;;;;;;4976725;28;20551;-71
2024/02/06 05:53:58;;;;;;;5.55;1.90;;;9.80;99.90;;;;;;4973089;28;20438;-71
2024/02/06 05:56:23;;;;;;;5.65;1.80;;;9.70;99.90;;;;;;4975728;28;20422;-71
2024/02/06 05:58:49;;;;;;;5.78;2.13;;;9.80;99.90;;;;;;4972525;28;20031;-72
2024/02/06 06:01:15;;;;;;;3.75;1.90;;;9.80;99.90;;;;;;4973432;28;20100;-72
2024/02/06 06:03:41;;;;;;;2.13;1.63;;;9.80;99.90;;;;;;4971114;28;20034;-72
2024/02/06 06:06:06;;;;;;;5.20;2.17;;;9.90;99.90;;;;;;4974612;28;20019;-71
2024/02/06 06:08:33;;;;;;;3.40;1.80;;;9.80;99.90;;;;;;4975034;28;20054;-71
2024/02/06 06:10:58;;;;;;;4.45;2.33;;;9.80;99.90;;;;;;4975536;28;20026;-72
2024/02/06 06:13:24;;;;;;;7.07;2.00;;;9.90;99.90;;;;;;4973919;28;20027;-72
2024/02/06 06:15:51;;;;;;;3.70;2.08;;;10.00;99.90;;;;;;4975280;28;20441;-72
2024/02/06 06:18:17;;;;;;;4.78;1.92;;;10.20;99.90;;;;;;4972376;28;20865;-72
2024/02/06 06:20:43;;;;;;;3.05;1.80;;;10.20;99.90;;;;;;4976499;28;20051;-71
2024/02/06 06:23:08;;;;;;;3.20;1.60;;;10.10;99.90;;;;;;4972312;28;20110;-71
2024/02/06 06:25:34;;;;;;;3.25;1.77;;;10.00;99.90;;;;;;4974951;28;20121;-71
2024/02/06 06:28:00;;;;;;;8.35;2.13;;;10.00;99.90;;;;;;4973196;28;20066;-71
2024/02/06 06:30:26;;;;;;;5.95;2.97;;;10.00;99.90;;;;;;4974356;28;20041;-72
2024/02/06 06:32:51;;;;;;;5.40;2.67;;;10.10;99.90;;;;;;4973485;28;20828;-72
2024/02/06 06:35:17;;;;;;;11.95;5.65;;;10.20;99.90;;;;;;4974588;28;20030;-72
2024/02/06 06:37:43;;;;;;;5.38;4.78;;;10.10;99.90;;;;;;4973342;28;20583;-71
2024/02/06 06:40:09;;;;;;;4.38;3.20;;;10.10;99.90;;;;;;4971206;28;20035;-72
2024/02/06 06:42:35;;;;;;;2.80;2.15;;;10.00;99.90;;;;;;4972916;28;20120;-72
2024/02/06 06:45:01;;;;;;;5.72;2.60;;;10.00;99.90;;;;;;4971729;28;20113;-72
2024/02/06 06:47:29;;;;;;;5.78;2.05;;;10.10;99.90;;;;;;4976179;28;20094;-72
2024/02/06 06:49:55;;;;;;;2.40;1.60;;;10.10;99.90;;;;;;4972370;28;20030;-72
2024/02/06 06:52:20;;;;;;;5.80;2.42;;;10.20;99.90;;;;;;4974625;28;20108;-71
2024/02/06 06:54:46;;;;;;;4.50;2.10;;;10.10;99.90;;;;;;4972889;28;20027;-72
2024/02/06 06:57:12;;;;;;;5.32;1.90;;;10.10;99.90;;;;;;4974252;28;20061;-72
2024/02/06 06:59:39;;;;;;;7.18;2.00;;;10.10;99.90;;;;;;4974253;28;20061;-72
2024/02/06 07:02:05;;;;;;;3.33;1.60;;;10.10;99.90;;;;;;4970667;28;20038;-71
2024/02/06 07:04:31;;;;;;;4.88;1.73;;;10.10;99.90;;;;;;4973870;28;20026;-71
2024/02/06 07:06:57;;;;;;;4.85;2.30;;;10.10;99.90;;;;;;4973353;28;20041;-72
2024/02/06 07:09:25;;;;;;;3.88;1.80;;;10.20;99.90;;;;;;4974697;28;20035;-71
2024/02/06 07:11:51;;;;;;;4.55;1.70;;;10.30;99.90;;;;;;4976920;28;20143;-71
2024/02/06 07:14:18;;;;;;;8.05;3.03;;;10.30;99.90;;;;;;4976902;28;20058;-71
2024/02/06 07:16:43;;;;;;;4.78;2.08;;;10.40;99.90;;;;;;4977274;28;20033;-72
2024/02/06 07:19:09;;;;;;;3.53;2.20;;;10.40;99.90;;;;;;4975628;28;20038;-71
2024/02/06 07:21:35;;;;;;;2.47;1.58;;;10.40;99.90;;;;;;4978661;28;20042;-72
2024/02/06 07:24:01;;;;;;;6.32;2.85;;;10.50;99.90;;;;;;4975880;28;20038;-71
2024/02/06 07:26:27;;;;;;;4.13;2.22;;;10.30;99.90;;;;;;4977397;28;20041;-72
2024/02/06 07:28:57;;;;;;;5.28;1.92;;;10.20;99.90;;;;;;4973621;28;20045;-72
2024/02/06 07:31:23;;;;;;;4.13;1.60;;;10.20;99.90;;;;;;4976886;28;20046;-72
2024/02/06 07:33:50;;;;;;;3.40;2.33;;;10.20;99.90;;;;;;4980135;23;20062;-72
2024/02/06 07:36:16;;;;;;;6.22;2.25;;;10.10;99.90;;;;;;4963840;28;20026;-72
2024/02/06 07:38:42;;;;;;;5.85;2.30;;;10.10;99.90;;;;;;4966060;28;20034;-72
2024/02/06 07:41:08;;;;;;;3.28;1.70;;;10.20;99.90;;;;;;4954325;28;20035;-72
2024/02/06 07:43:37;;;;;;;7.38;2.25;;;10.30;99.90;;;;;;4946348;29;20035;-72
2024/02/06 07:46:04;;;;;;;5.55;2.22;;;10.30;99.90;;;;;;4947370;28;20399;-72
2024/02/06 07:48:30;;;;;;;9.02;1.65;;;10.40;99.90;;;;;;4947042;28;20435;-72
2024/02/06 07:50:56;;;;;;;8.02;2.97;;;10.40;99.90;;;;;;4946514;28;20487;-72
2024/02/06 07:53:21;;;;;;;3.80;2.33;;;10.40;99.90;;;;;;4946446;28;20050;-72
2024/02/06 07:55:47;;;;;;;2.20;1.50;;;10.50;99.90;;;;;;4946366;28;20875;-72
2024/02/06 07:58:13;;;;;;;6.72;1.83;;;10.60;99.90;;;;;;4946705;28;20042;-72
2024/02/06 08:00:39;;;;;;;5.53;2.75;;;10.70;99.90;;;;;;4947051;29;20390;-72
2024/02/06 08:03:05;;;;;;;3.75;1.65;;;10.70;99.90;;;;;;4944638;28;20043;-72
2024/02/06 08:05:32;;;;;;;6.93;3.15;;;10.70;99.90;;;;;;4946347;28;20049;-72
2024/02/06 08:07:58;;;;;;;7.95;1.73;;;10.60;99.90;;;;;;4946645;28;20070;-72
2024/02/06 08:10:24;;;;;;;3.42;1.60;;;10.50;99.90;;;;;;4946705;28;20039;-72
2024/02/06 08:12:50;;;;;;;3.00;1.45;;;10.60;99.90;;;;;;4946745;28;20035;-71
2024/02/06 08:15:16;;;;;;;3.95;1.92;;;10.70;99.90;;;;;;4946876;28;20063;-71
2024/02/06 08:17:46;;;;;;;7.85;4.07;;;10.60;99.90;;;;;;4946830;28;20028;-71
2024/02/06 08:20:13;;;;;;;6.53;2.80;;;10.50;99.90;;;;;;4942648;28;20027;-71
2024/02/06 08:22:39;;;;;;;8.05;2.65;;;10.40;99.90;;;;;;4945000;28;20039;-71
2024/02/06 08:25:06;;;;;;;7.78;3.40;;;10.60;99.90;;;;;;4946451;28;20045;-70
2024/02/06 08:27:35;;;;;;;15.55;6.82;;;10.60;99.90;;;;;;4946413;28;20106;-70
2024/02/06 08:30:03;;;;;;;2.60;1.67;;;10.50;99.90;;;;;;4946220;28;20043;-70
2024/02/06 08:32:29;;;;;;;9.68;3.00;;;10.50;99.90;;;;;;4946056;28;20019;-72
2024/02/06 08:34:55;;;;;;;11.43;5.47;;;10.60;99.90;;;;;;4946008;28;20038;-71
2024/02/06 08:37:21;;;;;;;17.38;5.55;;;10.60;99.90;;;;;;4946295;28;20020;-69
2024/02/06 08:39:47;;;;;;;4.88;3.15;;;10.70;99.90;;;;;;4945772;28;20031;-71
2024/02/06 08:42:13;;;;;;;8.98;2.70;;;10.80;99.90;;;;;;4946277;28;20098;-71
2024/02/06 08:44:39;;;;;;;4.32;1.30;;;10.90;99.90;;;;;;4945637;28;20403;-70
2024/02/06 08:47:06;;;;;;;7.43;2.20;;;11.00;99.90;;;;;;4946628;28;20123;-70
2024/02/06 08:49:31;;;;;;;6.07;2.58;;;11.10;99.90;;;;;;4943827;28;20051;-70
2024/02/06 08:51:57;;;;;;;4.15;2.15;;;11.10;99.90;;;;;;4944765;28;20695;-71
2024/02/06 08:54:24;;;;;;;2.65;1.15;;;11.00;99.90;;;;;;4945167;28;20446;-69
2024/02/06 08:56:52;;;;;;;2.97;1.60;;;10.90;99.90;;;;;;4943625;28;20403;-72
2024/02/06 08:59:18;;;;;;;4.20;1.80;;;10.90;99.90;;;;;;4945823;28;20019;-71
2024/02/06 09:01:44;;;;;;;5.63;2.63;;;11.00;99.90;;;;;;4945992;28;20039;-72
2024/02/06 09:04:10;;;;;;;3.15;2.40;;;11.00;99.90;;;;;;4945621;28;20035;-71
2024/02/06 09:06:36;;;;;;;3.78;1.60;;;11.00;99.90;;;;;;4945309;28;20094;-71
2024/02/06 09:09:03;;;;;;;2.55;1.50;;;11.10;99.90;;;;;;4945342;29;20043;-71
2024/02/06 09:11:32;;;;;;;1.67;1.30;;;11.00;99.90;;;;;;4933318;28;20075;-70
2024/02/06 09:13:59;;;;;;;2.55;1.45;;;11.00;99.90;;;;;;4944095;28;20177;-70
2024/02/06 09:16:25;;;;;;;1.67;1.00;;;11.10;99.90;;;;;;4946055;29;20094;-71
2024/02/06 09:18:57;;;;;;;4.60;1.30;;;11.30;99.90;;;;;;4944879;28;20027;-71
2024/02/06 09:21:23;;;;;;;2.92;1.20;;;11.40;99.90;;;;;;4945665;28;20031;-70
2024/02/06 09:23:49;;;;;;;3.08;1.23;;;11.40;99.90;;;;;;4945060;28;21735;-70
2024/02/06 09:26:15;;;;;;;2.88;1.30;;;11.40;99.90;;;;;;4945070;28;20031;-70
2024/02/06 09:28:44;;;;;;;5.70;1.23;;;11.40;99.90;;;;;;4945016;28;20031;-71
2024/02/06 09:31:11;;;;;;;3.05;1.75;;;11.40;99.90;;;;;;4945297;28;20103;-70
2024/02/06 09:33:37;;;;;;;2.40;1.38;;;11.40;99.90;;;;;;4944598;28;20113;-70
2024/02/06 09:36:05;;;;;;;1.02;0.93;;;11.40;99.90;;;;;;4945540;28;20794;-71
2024/02/06 09:38:31;;;;;;;2.95;1.00;;;11.40;99.90;;;;;;4944145;29;20089;-70
2024/02/06 09:40:57;;;;;;;2.00;1.17;;;11.40;99.90;;;;;;4943513;29;20153;-70
2024/02/06 09:43:24;;;;;;;5.13;1.10;;;11.40;99.90;;;;;;4945228;28;20042;-70
2024/02/06 09:45:52;;;;;;;3.90;1.15;;;11.30;99.90;;;;;;4945107;28;20146;-70
2024/02/06 09:48:18;;;;;;;4.85;1.50;;;11.40;99.90;;;;;;4944920;28;20041;-73
2024/02/06 09:50:44;;;;;;;3.35;1.33;;;11.30;99.90;;;;;;4943507;28;20897;-74
2024/02/06 09:53:11;;;;;;;3.55;1.42;;;11.30;99.90;;;;;;4956885;28;20042;-74
2024/02/06 09:55:46;;;;;;;3.92;1.40;;;11.30;99.90;;;;;;4945038;28;20524;-74
2024/02/06 09:58:14;;;;;;;2.65;0.90;;;11.40;99.90;;;;;;4945340;28;20980;-73
2024/02/06 10:00:43;;;;;;;1.42;0.93;;;11.50;99.90;;;;;;4945423;28;20038;-74
2024/02/06 10:03:19;;;;;;;5.82;2.35;;;11.60;99.90;;;;;;4944649;29;20039;-74
2024/02/06 10:05:46;;;;;;;;;;;11.50;99.90;;;;;;4943361;28;20455;-76
2024/02/06 10:08:12;;;;;;;2.60;0.90;;;11.50;99.90;;;;;;4943361;28;19954;-73
2024/02/06 10:10:41;;;;;;;5.70;1.20;;;11.50;99.90;;;;;;4942927;28;20035;-72
2024/02/06 10:13:07;;;;;;;1.00;0.90;;;11.40;99.90;;;;;;4944289;29;20809;-73
2024/02/06 10:15:33;;;;;;;3.55;1.30;;;11.50;99.90;;;;;;4944909;28;20037;-72
2024/02/06 10:18:00;;;;;;;2.38;0.95;;;11.60;99.90;;;;;;4942699;29;20023;-72
2024/02/06 10:20:26;;;;;;;4.50;1.10;;;11.70;99.90;;;;;;4943461;29;20035;-72
2024/02/06 10:22:52;;;;;;;5.32;1.40;;;11.80;99.90;;;;;;4943588;28;20046;-72
2024/02/06 10:25:18;;;;;;;5.03;1.27;;;11.80;99.90;;;;;;4945295;28;20483;-72
2024/02/06 10:27:44;;;;;;;4.65;1.58;;;11.90;99.90;;;;;;4944844;28;20035;-71
2024/02/06 10:30:10;;;;;;;3.78;1.48;;;11.80;99.90;;;;;;4944561;28;20034;-71
2024/02/06 10:32:37;;;;;;;4.15;2.00;;;11.70;99.90;;;;;;4944738;28;20077;-71
2024/02/06 10:35:08;;;;;;;6.35;2.85;;;11.80;99.90;;;;;;4944506;28;20074;-71
2024/02/06 10:37:35;;;;;;;2.67;1.15;;;11.60;99.90;;;;;;4944385;28;20148;-71
2024/02/06 10:40:09;;;;;;;7.70;2.40;;;11.60;99.90;;;;;;4942903;29;20047;-73
2024/02/06 10:42:36;;;;;;;7.13;2.95;;;11.70;99.90;;;;;;4944420;28;20047;-71
2024/02/06 10:45:03;;;;;;;2.83;1.02;;;11.70;99.90;;;;;;4946060;29;20388;-67
2024/02/06 10:47:29;;;;;;;3.67;0.95;;;11.80;99.90;;;;;;4948872;28;20039;-71
2024/02/06 10:50:05;;;;;;;4.97;1.35;;;11.70;99.90;;;;;;4946295;28;20102;-71
2024/02/06 10:52:31;;;;;;;2.15;1.60;;;11.70;99.90;;;;;;4948523;28;20768;-71
2024/02/06 10:54:57;;;;;;;1.95;0.98;;;11.70;99.90;;;;;;4946218;29;20039;-71
2024/02/06 10:57:31;;;;;;;3.22;1.73;;;11.80;99.90;;;;;;4947960;28;20038;-71
2024/02/06 11:00:15;;;;;;;3.53;1.00;;;11.90;99.90;;;;;;4946495;29;20036;-69
2024/02/06 11:02:46;;;;;;;1.38;0.88;;;12.00;99.90;;;;;;4948237;28;20038;-70
2024/02/06 11:05:37;;;;;;;1.73;0.93;;;12.10;99.90;;;;;;4947259;29;20043;-70
2024/02/06 11:08:23;;;;;;;4.32;1.20;;;12.10;99.90;;;;;;4947762;28;20124;-69
2024/02/06 11:11:00;;;;;;;2.60;0.80;;;12.00;99.90;;;;;;4946200;29;20039;-69
2024/02/06 11:13:38;;;;;;;1.00;0.90;;;11.90;99.90;;;;;;4947128;28;20054;-71
2024/02/06 11:16:08;;;;;;;1.35;0.65;;;11.80;99.90;;;;;;4946995;28;20027;-70
2024/02/06 11:18:44;;;;;;;3.00;1.20;;;11.80;99.90;;;;;;4933942;28;20051;-70
2024/02/06 11:21:10;;;;;;;;;;;11.90;99.90;;;;;;4944331;29;20055;-70
2024/02/06 11:23:37;;;;;;;4.00;0.90;;;12.00;99.90;;;;;;4946023;28;19911;-70
2024/02/06 11:26:05;;;;;;;3.50;0.82;;;12.10;99.90;;;;;;4946992;28;20047;-70
2024/02/06 11:28:31;;;;;;;4.32;0.80;;;12.00;99.90;;;;;;4947359;28;20042;-70
2024/02/06 11:30:59;;;;;;;2.20;1.00;;;12.00;99.90;;;;;;4947939;28;20085;-70
2024/02/06 11:33:32;;;;;;;2.70;0.98;;;12.00;99.90;;;;;;4947067;28;20031;-70
2024/02/06 11:36:12;;;;;;;2.45;0.70;;;12.00;99.90;;;;;;4947980;28;20027;-70
2024/02/06 11:38:38;;;;;;;1.38;0.77;;;11.80;99.90;;;;;;4946868;29;20032;-69
2024/02/06 11:41:14;;;;;;;4.35;0.70;;;11.90;99.90;;;;;;4947044;28;20047;-69
2024/02/06 11:43:40;;;;;;;1.70;0.80;;;11.80;99.90;;;;;;4947205;28;20214;-69
2024/02/06 11:46:06;;;;;;;1.30;0.98;;;11.70;99.90;;;;;;4947522;28;20418;-69
2024/02/06 11:48:32;;;;;;;2.53;1.23;;;11.60;99.90;;;;;;4946543;28;20035;-69
2024/02/06 11:50:58;;;;;;;1.67;0.80;;;11.60;99.90;;;;;;4947009;28;20530;-68
2024/02/06 11:53:28;;;;;;;2.55;0.65;;;11.60;99.90;;;;;;4946577;28;20031;-67
2024/02/06 11:55:57;;;;;;;1.67;0.90;;;11.70;99.90;;;;;;4944238;28;20074;-69
2024/02/06 11:58:26;;;;;;;2.90;0.90;;;11.80;99.90;;;;;;4947052;28;20511;-69
2024/02/06 12:00:52;;;;;;;1.95;0.70;;;11.80;99.90;;;;;;4946866;28;20051;-69
2024/02/06 12:03:18;;;;;;;0.55;0.50;;;11.80;99.90;;;;;;4946849;28;20063;-69
2024/02/06 12:05:45;;;;;;;6.20;1.00;;;12.00;99.90;;;;;;4946965;28;20035;-69
2024/02/06 12:08:19;;;;;;;1.45;0.80;;;12.10;99.90;;;;;;4947125;28;20505;-69
2024/02/06 12:10:45;;;;;;;1.92;0.70;;;12.10;99.90;;;;;;4946229;28;20042;-70
2024/02/06 12:13:12;;;;;;;3.53;0.82;;;12.10;99.90;;;;;;4947096;28;20041;-70
2024/02/06 12:15:39;;;;;;;3.75;0.90;;;12.20;99.90;;;;;;4946632;28;20031;-70
2024/02/06 12:18:13;;;;;;;2.30;1.05;;;12.20;99.90;;;;;;4945689;28;20483;-66
2024/02/06 12:20:40;;;;;;;2.03;0.80;;;12.10;99.90;;;;;;4946774;28;20031;-69
2024/02/06 12:23:07;;;;;;;2.42;0.80;;;11.90;99.90;;;;;;4946657;28;20043;-68
2024/02/06 12:25:34;;;;;;;1.00;0.60;;;11.90;99.90;;;;;;4946696;28;20622;-68
2024/02/06 12:28:02;;;;;;;2.47;1.00;;;12.10;99.90;;;;;;4944629;29;20511;-69
2024/02/06 12:30:29;;;;;;;1.30;0.95;;;12.10;99.90;;;;;;4945305;28;20031;-70
2024/02/06 12:32:57;;;;;;;4.07;0.90;;;12.20;99.90;;;;;;4942168;29;20098;-74
2024/02/06 12:35:24;;;;;;;4.10;0.98;;;12.10;99.90;;;;;;4946205;28;20027;-67
2024/02/06 12:37:49;;;;;;;1.48;0.73;;;12.00;99.90;;;;;;4946693;28;20098;-68
2024/02/06 12:40:19;;;;;;;2.00;0.80;;;12.10;99.90;;;;;;4946678;28;20039;-72
2024/02/06 12:42:46;;;;;;;2.35;1.05;;;12.10;99.90;;;;;;4946626;28;20039;-68
2024/02/06 12:45:14;;;;;;;2.10;0.90;;;11.90;99.90;;;;;;4946112;28;20491;-73
2024/02/06 12:47:41;;;;;;;2.78;1.20;;;12.00;99.90;;;;;;4943951;29;20063;-74